Time;durP1;ratioP1;P1;durP2;ratioP2;P2;SDS_P1;SDS_P2;PMS_P1;PMS_P2;Temp;Humidity;BMP_temperature;BMP_pressure;BME280_temperature;BME280_humidity;BME280_pressure;Samples;Min_cycle;Max_cycle;Signal;HPM_P1;HPM_P2
2022/05/19 00:01:49;;;;;;;6.70;4.20;;;;;;;23.37;46.27;100355.75;4966044;28;20403;-79
2022/05/19 00:04:16;;;;;;;7.13;4.18;;;;;;;23.36;46.46;100356.81;4954519;28;20051;-78
2022/05/19 00:06:43;;;;;;;6.60;4.95;;;;;;;23.33;46.64;100348.25;4945589;28;20050;-78
2022/05/19 00:09:11;;;;;;;5.25;4.35;;;;;;;23.32;46.53;100352.00;4951620;28;20058;-78
2022/05/19 00:11:39;;;;;;;5.03;4.22;;;;;;;23.30;46.80;100357.63;4954279;28;20039;-78
2022/05/19 00:14:06;;;;;;;6.47;4.22;;;;;;;23.28;46.80;100346.19;4937966;28;20053;-78
2022/05/19 00:16:33;;;;;;;7.40;4.35;;;;;;;23.28;46.61;100348.03;4957070;28;20487;-79
2022/05/19 00:18:59;;;;;;;6.60;4.25;;;;;;;23.24;46.82;100342.22;4964882;28;20057;-78
2022/05/19 00:21:27;;;;;;;4.60;3.85;;;;;;;23.23;46.76;100343.25;4957327;28;20041;-83
2022/05/19 00:23:54;;;;;;;6.25;4.72;;;;;;;23.23;46.65;100345.97;4948157;28;20042;-82
2022/05/19 00:26:20;;;;;;;5.75;4.47;;;;;;;23.21;46.66;100344.50;4981718;28;20060;-82
2022/05/19 00:28:47;;;;;;;4.68;4.07;;;;;;;23.17;47.06;100339.47;4985226;28;20053;-82
2022/05/19 00:31:14;;;;;;;5.10;4.45;;;;;;;23.15;46.91;100340.72;4959071;28;20038;-82
2022/05/19 00:33:41;;;;;;;4.75;4.22;;;;;;;23.13;46.84;100337.41;4964331;28;20053;-82
2022/05/19 00:36:13;;;;;;;7.03;4.25;;;;;;;23.10;47.06;100344.06;4974270;28;20041;-82
2022/05/19 00:38:40;;;;;;;4.68;4.22;;;;;;;23.07;46.65;100340.91;4948612;28;20142;-83
2022/05/19 00:41:07;;;;;;;7.97;4.13;;;;;;;23.02;46.93;100327.97;4974792;28;20129;-82
2022/05/19 00:43:37;;;;;;;5.25;4.00;;;;;;;22.96;47.10;100337.75;4955255;28;20065;-81
2022/05/19 00:46:12;;;;;;;4.30;3.90;;;;;;;22.90;47.32;100338.56;4979252;28;20043;-82
2022/05/19 00:49:19;;;;;;;4.97;3.88;;;;;;;22.85;47.62;100337.50;4991593;28;20060;-82
2022/05/19 00:52:00;;;;;;;7.80;4.90;;;;;;;22.79;47.80;100339.13;4938987;28;20054;-82
2022/05/19 00:54:31;;;;;;;5.50;4.97;;;;;;;22.78;47.62;100339.38;4938609;28;20524;-81
2022/05/19 00:57:09;;;;;;;7.90;4.80;;;;;;;22.75;47.84;100341.44;4951916;28;20126;-82
2022/05/19 00:59:47;;;;;;;6.25;4.50;;;;;;;22.72;47.65;100339.13;4965775;28;20709;-82
2022/05/19 01:02:17;;;;;;;7.32;4.68;;;;;;;22.72;47.76;100335.59;4983737;28;20035;-82
2022/05/19 01:04:49;;;;;;;5.32;4.57;;;;;;;22.69;47.83;100336.81;4966836;28;20130;-78
2022/05/19 01:07:20;;;;;;;7.10;4.75;;;;;;;22.64;47.73;100333.88;4958212;28;20042;-78
2022/05/19 01:09:48;;;;;;;5.10;3.83;;;;;;;22.61;47.96;100330.75;4937092;28;20039;-79
2022/05/19 01:12:15;;;;;;;4.97;3.90;;;;;;;22.55;47.93;100332.41;4978204;28;20047;-80
2022/05/19 01:14:43;;;;;;;5.63;4.30;;;;;;;22.54;48.23;100333.41;4963156;28;20393;-80
2022/05/19 01:17:10;;;;;;;4.57;4.15;;;;;;;22.52;48.02;100339.06;4964443;28;20043;-86
2022/05/19 01:19:41;;;;;;;6.57;4.60;;;;;;;22.52;48.17;100335.53;4954058;28;20066;-88
2022/05/19 01:22:28;;;;;;;7.68;4.78;;;;;;;22.51;48.33;100336.53;4935607;28;20070;-78
2022/05/19 01:25:17;;;;;;;8.52;4.53;;;;;;;22.49;48.18;100334.06;4900558;28;20510;-78
2022/05/19 01:27:44;;;;;;;4.82;4.32;;;;;;;22.48;48.00;100335.06;4948323;28;20047;-78
2022/05/19 01:30:12;;;;;;;7.55;4.35;;;;;;;22.49;48.18;100328.63;4961819;28;20129;-79
2022/05/19 01:32:39;;;;;;;6.28;4.90;;;;;;;22.51;47.88;100325.72;4961332;28;20073;-78
2022/05/19 01:35:07;;;;;;;6.97;4.63;;;;;;;22.51;48.04;100326.53;4969455;28;20355;-78
2022/05/19 01:37:34;;;;;;;6.13;5.10;;;;;;;22.51;48.03;100318.41;4951586;28;20626;-78
2022/05/19 01:40:18;;;;;;;6.82;4.50;;;;;;;22.51;47.85;100313.00;4948843;28;20049;-79
2022/05/19 01:42:55;;;;;;;4.90;4.40;;;;;;;22.50;47.62;100316.75;4997400;28;20470;-79
2022/05/19 01:45:33;;;;;;;8.45;4.97;;;;;;;22.50;47.88;100313.22;4986005;28;20046;-78
2022/05/19 01:48:01;;;;;;;5.20;4.30;;;;;;;22.49;47.79;100308.84;4981370;28;20126;-78
2022/05/19 01:50:37;;;;;;;7.07;4.63;;;;;;;22.45;47.91;100318.41;4946713;28;20521;-78
2022/05/19 01:53:15;;;;;;;4.40;4.00;;;;;;;22.49;47.14;100311.53;4974269;28;20043;-78
2022/05/19 01:56:27;;;;;;;10.02;4.78;;;;;;;22.48;47.33;100313.41;4986337;28;20045;-78
2022/05/19 01:59:24;;;;;;;5.85;5.00;;;;;;;22.43;47.97;100299.66;4895910;28;20050;-82
2022/05/19 02:01:57;;;;;;;7.63;4.50;;;;;;;22.29;46.97;100316.88;4950572;28;20049;-82
2022/05/19 02:04:28;;;;;;;;;;;;;;;22.25;46.45;100313.72;4993728;28;20070;-83
2022/05/19 02:07:01;;;;;;;5.78;4.38;;;;;;;22.16;47.08;100314.91;4959731;28;19936;-82
2022/05/19 02:09:32;;;;;;;8.40;4.55;;;;;;;22.19;47.10;100310.97;4990140;28;20070;-80
2022/05/19 02:12:01;;;;;;;4.80;4.13;;;;;;;22.14;46.62;100316.97;4966413;28;20061;-80
2022/05/19 02:15:03;;;;;;;8.00;4.30;;;;;;;22.21;46.87;100311.63;4955430;28;20050;-80
2022/05/19 02:17:31;;;;;;;7.28;5.07;;;;;;;22.25;47.18;100305.63;4879610;28;20487;-80
2022/05/19 02:20:03;;;;;;;6.43;4.50;;;;;;;22.20;46.74;100312.66;4976450;28;20058;-80
2022/05/19 02:22:35;;;;;;;9.00;4.47;;;;;;;22.13;47.63;100309.88;4961225;28;20051;-80
2022/05/19 02:25:11;;;;;;;4.83;4.43;;;;;;;22.12;48.07;100302.81;4942988;28;20682;-80
2022/05/19 02:27:48;;;;;;;7.32;4.80;;;;;;;22.11;47.69;100314.69;4954513;28;20457;-80
2022/05/19 02:30:18;;;;;;;4.95;4.22;;;;;;;22.09;47.41;100304.06;4949230;28;20051;-80
2022/05/19 02:32:46;;;;;;;6.07;4.18;;;;;;;22.11;46.96;100306.56;4954234;28;20058;-80
2022/05/19 02:35:13;;;;;;;3.97;3.58;;;;;;;22.10;47.24;100310.28;4944653;28;20387;-80
2022/05/19 02:37:42;;;;;;;4.90;4.40;;;;;;;22.10;47.22;100315.69;4959824;28;20043;-80
2022/05/19 02:40:11;;;;;;;5.95;4.18;;;;;;;22.07;47.07;100314.22;4939485;28;20130;-80
2022/05/19 02:42:38;;;;;;;4.90;4.38;;;;;;;22.05;47.29;100312.75;4922826;28;20054;-80
2022/05/19 02:45:05;;;;;;;5.70;4.35;;;;;;;22.04;47.25;100314.63;4944609;28;20129;-80
2022/05/19 02:47:32;;;;;;;6.80;4.68;;;;;;;22.04;46.60;100306.53;4947581;28;20042;-79
2022/05/19 02:49:59;;;;;;;4.38;3.97;;;;;;;22.00;47.20;100307.94;4946084;28;20510;-79
2022/05/19 02:52:25;;;;;;;5.63;4.20;;;;;;;21.96;47.23;100305.84;4984901;28;20058;-80
2022/05/19 02:54:52;;;;;;;6.15;4.20;;;;;;;21.96;47.44;100303.97;4965461;28;20138;-80
2022/05/19 02:57:19;;;;;;;6.07;4.47;;;;;;;21.94;47.23;100310.63;4976121;28;20039;-80
2022/05/19 02:59:46;;;;;;;4.70;4.25;;;;;;;21.87;47.27;100306.00;4985371;28;20054;-80
2022/05/19 03:02:12;;;;;;;7.03;4.85;;;;;;;21.83;47.20;100301.16;4944541;28;20561;-80
2022/05/19 03:04:39;;;;;;;12.20;4.60;;;;;;;21.75;46.87;100306.72;4977766;28;20047;-80
2022/05/19 03:07:06;;;;;;;7.15;4.25;;;;;;;21.69;46.49;100300.25;4962054;28;20053;-80
2022/05/19 03:09:35;;;;;;;5.47;4.65;;;;;;;21.70;47.44;100299.22;4953002;28;20058;-80
2022/05/19 03:12:02;;;;;;;7.18;3.85;;;;;;;21.58;47.47;100296.25;4946805;28;20116;-80
2022/05/19 03:14:30;;;;;;;6.95;4.55;;;;;;;21.59;47.23;100299.78;4961182;28;20042;-80
2022/05/19 03:16:57;;;;;;;4.75;4.05;;;;;;;21.60;46.66;100312.22;4967610;28;20516;-80
2022/05/19 03:19:23;;;;;;;8.00;4.90;;;;;;;21.58;47.56;100304.34;4964321;28;20053;-80
2022/05/19 03:21:50;;;;;;;6.32;4.15;;;;;;;21.57;47.78;100310.75;4954883;28;20698;-80
2022/05/19 03:24:17;;;;;;;5.90;4.35;;;;;;;21.56;47.68;100305.56;4976806;28;20042;-80
2022/05/19 03:26:43;;;;;;;8.45;4.63;;;;;;;21.52;47.79;100312.38;4961757;28;20043;-80
2022/05/19 03:29:10;;;;;;;6.88;4.63;;;;;;;21.46;48.00;100304.03;4972962;28;20057;-80
2022/05/19 03:31:38;;;;;;;8.93;5.78;;;;;;;21.41;47.91;100301.06;4987798;28;20051;-80
2022/05/19 03:34:05;;;;;;;7.68;5.40;;;;;;;21.39;47.95;100300.44;4974656;28;20034;-80
2022/05/19 03:36:32;;;;;;;5.88;4.75;;;;;;;21.34;48.29;100302.03;4965091;28;20074;-76
2022/05/19 03:38:59;;;;;;;8.45;4.72;;;;;;;21.29;48.34;100301.78;4964873;28;20056;-77
2022/05/19 03:41:26;;;;;;;4.95;4.30;;;;;;;21.25;48.69;100306.72;4975392;28;20049;-76
2022/05/19 03:43:52;;;;;;;4.97;4.50;;;;;;;21.19;48.62;100304.78;4992967;28;20046;-76
2022/05/19 03:46:19;;;;;;;6.22;4.50;;;;;;;21.16;48.49;100305.19;4973541;28;20059;-76
2022/05/19 03:48:47;;;;;;;6.57;4.45;;;;;;;21.12;48.42;100303.91;4972949;28;20145;-80
2022/05/19 03:51:22;;;;;;;4.65;3.75;;;;;;;21.12;48.23;100302.03;4991988;28;20133;-80
2022/05/19 03:53:50;;;;;;;4.85;4.10;;;;;;;21.13;48.79;100300.19;4978011;28;20047;-80
2022/05/19 03:56:18;;;;;;;4.97;4.20;;;;;;;21.12;48.97;100293.13;4975110;28;20050;-80
2022/05/19 03:58:48;;;;;;;8.90;4.80;;;;;;;21.14;48.69;100302.69;4974774;28;20057;-80
2022/05/19 04:01:16;;;;;;;4.25;3.85;;;;;;;21.17;48.72;100296.06;4947825;28;20049;-79
2022/05/19 04:03:43;;;;;;;7.13;3.53;;;;;;;21.22;48.33;100288.22;4972909;28;20054;-79
2022/05/19 04:06:10;;;;;;;5.90;4.03;;;;;;;21.24;48.30;100305.03;4961446;28;20074;-79
2022/05/19 04:08:37;;;;;;;4.85;3.65;;;;;;;21.24;48.37;100300.50;4981859;28;20063;-76
2022/05/19 04:11:04;;;;;;;5.32;3.80;;;;;;;21.26;48.35;100305.69;4942338;28;20078;-75
2022/05/19 04:13:31;;;;;;;5.75;4.20;;;;;;;21.30;48.18;100296.19;4961695;28;20050;-76
2022/05/19 04:15:58;;;;;;;5.30;4.18;;;;;;;21.35;47.69;100304.53;4955240;28;20537;-82
2022/05/19 04:18:25;;;;;;;6.28;4.50;;;;;;;21.39;47.82;100305.00;4991034;28;20046;-82
2022/05/19 04:20:52;;;;;;;5.65;3.90;;;;;;;21.39;48.25;100308.53;4969915;28;20050;-81
2022/05/19 04:23:19;;;;;;;5.75;4.18;;;;;;;21.35;48.38;100301.84;4978905;28;20042;-81
2022/05/19 04:25:48;;;;;;;6.88;4.10;;;;;;;21.34;48.46;100300.16;4969501;28;20130;-81
2022/05/19 04:28:16;;;;;;;6.47;4.72;;;;;;;21.32;48.54;100304.94;4966957;28;20054;-81
2022/05/19 04:30:43;;;;;;;5.88;3.78;;;;;;;21.33;48.46;100306.59;4974901;28;20043;-82
2022/05/19 04:33:11;;;;;;;5.05;4.15;;;;;;;21.28;47.28;100303.63;4963178;28;20039;-82
2022/05/19 04:35:39;;;;;;;5.70;3.80;;;;;;;21.42;48.33;100315.41;4956762;28;20070;-81
2022/05/19 04:38:08;;;;;;;3.83;3.53;;;;;;;21.45;47.05;100315.06;4964004;28;20054;-76
2022/05/19 04:40:37;;;;;;;4.95;4.25;;;;;;;21.51;48.54;100324.25;4959584;28;22455;-76
2022/05/19 04:43:10;;;;;;;6.25;4.10;;;;;;;21.58;48.13;100319.72;4947429;28;20246;-76
2022/05/19 04:45:37;;;;;;;5.00;4.35;;;;;;;21.63;47.91;100318.09;4975874;28;20042;-77
2022/05/19 04:48:04;;;;;;;7.05;4.10;;;;;;;21.60;46.87;100331.16;4977108;28;20114;-76
2022/05/19 04:50:31;;;;;;;4.90;3.95;;;;;;;21.54;48.32;100321.97;4981158;28;20428;-85
2022/05/19 04:52:59;;;;;;;7.25;4.78;;;;;;;21.52;48.94;100326.72;4985788;28;20053;-81
2022/05/19 04:55:26;;;;;;;5.32;4.45;;;;;;;21.48;47.73;100324.63;4987618;28;20096;-82
2022/05/19 04:57:53;;;;;;;7.75;4.40;;;;;;;21.48;48.30;100319.22;4983240;28;20041;-81
2022/05/19 05:00:20;;;;;;;16.42;4.13;;;;;;;21.51;47.37;100318.84;4975927;28;20085;-80
2022/05/19 05:02:47;;;;;;;5.28;3.65;;;;;;;21.57;46.69;100318.03;4969091;28;20050;-79
2022/05/19 05:05:14;;;;;;;7.07;3.78;;;;;;;21.54;45.87;100321.13;4986385;28;20048;-83
2022/05/19 05:07:40;;;;;;;7.32;3.78;;;;;;;21.32;45.75;100318.44;4994580;28;20049;-82
2022/05/19 05:10:08;;;;;;;9.25;3.70;;;;;;;21.33;45.84;100322.81;4974878;28;20047;-83
2022/05/19 05:12:35;;;;;;;7.50;4.22;;;;;;;21.39;45.50;100332.84;4974141;28;20057;-83
2022/05/19 05:15:02;;;;;;;7.93;3.38;;;;;;;21.36;45.51;100327.81;4980517;28;20043;-83
2022/05/19 05:17:29;;;;;;;5.38;3.42;;;;;;;21.33;45.53;100332.78;4975592;28;20050;-83
2022/05/19 05:19:56;;;;;;;4.97;3.70;;;;;;;21.43;45.06;100333.31;4979575;28;20042;-83
2022/05/19 05:22:23;;;;;;;8.35;4.13;;;;;;;21.38;45.04;100333.03;4974018;28;20046;-83
2022/05/19 05:24:50;;;;;;;6.38;4.07;;;;;;;21.43;45.51;100338.72;4975618;28;20609;-84
2022/05/19 05:27:17;;;;;;;7.95;4.25;;;;;;;21.54;45.06;100340.06;4967475;28;20046;-84
2022/05/19 05:29:44;;;;;;;6.72;4.22;;;;;;;21.46;45.40;100341.03;4978547;28;20073;-83
2022/05/19 05:32:11;;;;;;;6.75;3.75;;;;;;;21.53;45.17;100347.31;4979494;28;20047;-83
2022/05/19 05:34:38;;;;;;;6.95;4.07;;;;;;;21.61;44.99;100343.66;4986119;28;20061;-76
2022/05/19 05:37:06;;;;;;;4.35;3.25;;;;;;;21.71;44.21;100354.13;4970062;28;20050;-77
2022/05/19 05:39:33;;;;;;;10.07;3.65;;;;;;;21.71;44.78;100352.25;4966257;28;20055;-76
2022/05/19 05:42:02;;;;;;;6.85;3.70;;;;;;;21.73;45.02;100346.63;4978678;28;20053;-76
2022/05/19 05:44:28;;;;;;;5.85;3.80;;;;;;;21.79;44.37;100349.41;4972263;28;20038;-76
2022/05/19 05:46:55;;;;;;;6.28;3.50;;;;;;;21.85;44.35;100343.22;4959562;28;20054;-77
2022/05/19 05:49:22;;;;;;;5.35;3.38;;;;;;;21.94;44.20;100353.88;4998820;28;20130;-76
2022/05/19 05:51:49;;;;;;;5.80;3.65;;;;;;;22.04;44.42;100348.97;4976498;28;20073;-76
2022/05/19 05:54:15;;;;;;;9.75;4.15;;;;;;;22.07;44.99;100345.84;4976374;28;20133;-80
2022/05/19 05:56:42;;;;;;;5.75;3.40;;;;;;;22.20;44.66;100353.25;4971737;28;20059;-76
2022/05/19 05:59:09;;;;;;;5.70;4.22;;;;;;;22.15;44.59;100345.69;4962113;28;20560;-76
2022/05/19 06:01:36;;;;;;;6.55;3.83;;;;;;;22.06;44.47;100345.03;4978612;28;20063;-76
2022/05/19 06:04:03;;;;;;;5.47;3.85;;;;;;;22.01;44.42;100343.94;4967390;28;20047;-76
2022/05/19 06:06:30;;;;;;;5.32;3.55;;;;;;;21.99;44.60;100344.13;4965491;28;20081;-76
2022/05/19 06:08:57;;;;;;;5.30;3.72;;;;;;;22.05;44.82;100343.34;4969070;28;20102;-76
2022/05/19 06:11:28;;;;;;;6.15;3.72;;;;;;;22.09;44.63;100338.38;4963512;28;20047;-78
2022/05/19 06:13:55;;;;;;;8.10;4.10;;;;;;;22.15;44.51;100342.97;4950065;28;20072;-76
2022/05/19 06:16:22;;;;;;;6.50;3.88;;;;;;;22.24;45.02;100333.72;4974906;28;20050;-76
2022/05/19 06:18:49;;;;;;;5.82;3.17;;;;;;;22.22;44.41;100343.91;4964348;28;20474;-80
2022/05/19 06:21:17;;;;;;;8.25;3.83;;;;;;;22.26;44.46;100337.06;4977447;28;20062;-80
2022/05/19 06:23:44;;;;;;;5.43;3.40;;;;;;;22.23;44.34;100342.84;4968921;28;20049;-80
2022/05/19 06:26:11;;;;;;;7.13;3.53;;;;;;;22.24;44.54;100343.72;4960368;28;20081;-80
2022/05/19 06:28:38;;;;;;;4.05;3.60;;;;;;;22.25;43.98;100340.78;4948496;28;20035;-80
2022/05/19 06:31:05;;;;;;;5.10;3.80;;;;;;;22.28;44.44;100340.38;4970241;28;20046;-80
2022/05/19 06:33:35;;;;;;;6.20;3.83;;;;;;;22.34;44.60;100338.78;4977122;28;20076;-81
2022/05/19 06:36:05;;;;;;;4.63;3.13;;;;;;;22.32;44.06;100338.13;4959229;28;20038;-80
2022/05/19 06:38:32;;;;;;;7.55;3.78;;;;;;;22.33;44.84;100345.19;4970027;28;20515;-80
2022/05/19 06:43:46;;;;;;;4.50;3.28;;;;;;;22.41;44.04;100341.50;4979464;28;20045;-80
2022/05/19 06:46:13;;;;;;;11.18;4.03;;;;;;;22.48;44.13;100337.78;4960137;28;20042;-80
2022/05/19 06:48:40;;;;;;;8.07;3.90;;;;;;;22.54;43.69;100342.41;4974858;28;20058;-80
2022/05/19 06:51:07;;;;;;;4.90;3.25;;;;;;;22.59;44.03;100341.78;4974685;28;20054;-80
2022/05/19 06:53:48;;;;;;;8.45;3.70;;;;;;;22.62;43.38;100329.69;4958964;28;20078;-80
2022/05/19 06:56:15;;;;;;;5.38;3.65;;;;;;;22.68;43.15;100324.31;4974401;28;20077;-80
2022/05/19 06:58:42;;;;;;;5.35;3.25;;;;;;;22.68;43.64;100324.31;4956915;28;20102;-80
2022/05/19 07:01:08;;;;;;;5.60;3.30;;;;;;;22.76;44.15;100320.59;4982713;28;20053;-80
2022/05/19 07:03:35;;;;;;;8.73;3.83;;;;;;;22.70;43.72;100321.44;4976298;28;20497;-80
2022/05/19 07:06:02;;;;;;;13.05;3.60;;;;;;;22.76;43.82;100316.00;4966300;28;20043;-81
2022/05/19 07:08:29;;;;;;;5.05;2.90;;;;;;;22.76;44.19;100323.31;4952830;28;20399;-81
2022/05/19 07:10:56;;;;;;;8.15;4.05;;;;;;;22.80;43.69;100331.88;4961547;28;20051;-81
2022/05/19 07:13:22;;;;;;;4.57;3.70;;;;;;;22.83;43.31;100318.75;4978021;28;20046;-81
2022/05/19 07:15:49;;;;;;;8.75;3.40;;;;;;;22.87;43.04;100328.16;4971563;28;20053;-81
2022/05/19 07:18:16;;;;;;;5.90;3.42;;;;;;;22.92;43.33;100319.38;4959550;28;20922;-81
2022/05/19 07:20:49;;;;;;;6.95;3.60;;;;;;;22.93;44.07;100318.38;4960503;28;20039;-81
2022/05/19 07:23:24;;;;;;;5.72;3.72;;;;;;;23.00;43.42;100315.69;4942910;28;20483;-81
2022/05/19 07:25:51;;;;;;;4.45;3.25;;;;;;;22.98;43.42;100312.38;4985816;28;20486;-81
2022/05/19 07:28:22;;;;;;;4.00;3.15;;;;;;;22.98;43.52;100307.78;4960850;28;20046;-81
2022/05/19 07:30:49;;;;;;;11.02;3.33;;;;;;;23.05;43.49;100318.63;4973220;28;20059;-81
2022/05/19 07:33:16;;;;;;;3.67;3.17;;;;;;;23.13;43.23;100324.69;4960295;28;20047;-81
2022/05/19 07:35:46;;;;;;;4.95;3.33;;;;;;;23.14;43.16;100320.94;4982367;28;20043;-77
2022/05/19 07:38:14;;;;;;;7.85;3.53;;;;;;;23.22;43.56;100317.19;4979858;28;20073;-77
2022/05/19 07:40:42;;;;;;;10.27;3.22;;;;;;;23.22;42.92;100319.91;4970395;28;20494;-77
2022/05/19 07:45:57;;;;;;;4.78;3.35;;;;;;;23.19;43.30;100325.72;4965768;28;20490;-77
2022/05/19 07:48:24;;;;;;;4.72;2.97;;;;;;;23.21;43.42;100312.81;4968456;28;20450;-77
2022/05/19 07:50:50;;;;;;;5.72;3.30;;;;;;;23.26;43.04;100314.91;4963606;28;20047;-77
2022/05/19 07:53:17;;;;;;;4.10;3.08;;;;;;;23.30;42.44;100318.84;4948839;28;20053;-77
2022/05/19 07:55:44;;;;;;;4.55;2.70;;;;;;;23.37;42.73;100317.81;4955551;28;20101;-77
2022/05/19 07:58:11;;;;;;;5.22;2.90;;;;;;;23.35;42.65;100316.38;4943208;28;20051;-77
2022/05/19 08:00:37;;;;;;;6.00;2.78;;;;;;;23.43;42.73;100321.56;4961454;28;20402;-77
2022/05/19 08:03:04;;;;;;;4.53;2.80;;;;;;;23.45;42.14;100307.81;4973643;28;20584;-78
2022/05/19 08:05:31;;;;;;;3.05;2.65;;;;;;;23.44;42.56;100309.72;4969352;28;20074;-77
2022/05/19 08:07:58;;;;;;;4.53;3.53;;;;;;;23.50;42.68;100314.28;4976617;28;20054;-77
2022/05/19 08:10:26;;;;;;;5.45;2.90;;;;;;;23.54;42.20;100314.72;4962010;28;20062;-81
2022/05/19 08:15:42;;;;;;;5.05;3.08;;;;;;;23.62;42.54;100318.03;4933900;28;20043;-81
2022/05/19 08:18:11;;;;;;;6.78;2.80;;;;;;;23.69;42.33;100328.88;4970556;28;20494;-81
2022/05/19 08:20:44;;;;;;;5.03;2.97;;;;;;;23.71;42.37;100324.09;4978960;28;20125;-81
2022/05/19 08:23:18;;;;;;;5.22;3.25;;;;;;;23.75;42.23;100319.09;4964071;28;20049;-81
2022/05/19 08:25:45;;;;;;;3.53;2.85;;;;;;;23.76;42.29;100313.47;4958538;28;20564;-81
2022/05/19 08:28:14;;;;;;;3.80;2.80;;;;;;;23.83;42.53;100313.47;4980843;28;20050;-80
2022/05/19 08:30:46;;;;;;;5.85;3.17;;;;;;;23.84;43.11;100307.00;4971046;28;20054;-81
2022/05/19 08:33:15;;;;;;;5.20;3.03;;;;;;;23.85;42.70;100307.84;4960803;28;20046;-81
2022/05/19 08:35:42;;;;;;;5.22;3.15;;;;;;;23.91;42.86;100304.25;4975108;28;20058;-80
2022/05/19 08:38:08;;;;;;;4.50;3.70;;;;;;;23.94;43.38;100307.41;4969452;28;20054;-81
2022/05/19 08:40:40;;;;;;;4.38;2.88;;;;;;;23.95;42.60;100310.94;4972786;28;20051;-81
2022/05/19 08:43:09;;;;;;;6.15;3.00;;;;;;;23.93;42.56;100307.59;4988383;28;20046;-84
2022/05/19 08:45:39;;;;;;;7.25;3.75;;;;;;;23.93;42.58;100308.44;4965679;28;20484;-84
2022/05/19 08:48:11;;;;;;;6.97;3.53;;;;;;;23.94;43.10;100314.69;4975277;28;20657;-84
2022/05/19 08:50:53;;;;;;;6.93;4.43;;;;;;;23.91;43.33;100315.09;4988769;28;20529;-84
2022/05/19 08:53:20;;;;;;;7.63;3.65;;;;;;;23.97;43.51;100317.81;4973341;28;20467;-84
2022/05/19 08:55:51;;;;;;;4.50;3.17;;;;;;;23.97;44.08;100309.69;4980577;28;20054;-84
2022/05/19 08:58:27;;;;;;;4.25;3.25;;;;;;;24.02;43.24;100306.34;4974265;28;20047;-84
2022/05/19 09:01:15;;;;;;;4.60;3.40;;;;;;;23.94;42.32;100301.97;4988912;28;20047;-84
2022/05/19 09:04:06;;;;;;;8.15;4.80;;;;;;;23.92;43.37;100297.81;4942591;28;20046;-78
2022/05/19 09:07:56;;;;;;;3.53;3.10;;;;;;;24.04;44.00;100302.38;4942794;28;20078;-78
2022/05/19 09:09:49;;;;;;;3.80;3.50;;;;;;;24.10;43.37;100297.97;4968113;28;20479;-78
2022/05/19 09:12:19;;;;;;;7.47;3.92;;;;;;;24.17;43.59;100297.94;4992494;28;20050;-78
2022/05/19 09:14:46;;;;;;;6.22;3.60;;;;;;;24.26;43.39;100302.09;4988649;28;20571;-78
2022/05/19 09:17:14;;;;;;;7.45;3.50;;;;;;;24.24;43.41;100290.59;4963372;28;20051;-77
2022/05/19 09:19:46;;;;;;;6.50;3.15;;;;;;;24.23;43.39;100297.91;4951420;28;20050;-77
2022/05/19 09:22:29;;;;;;;5.72;3.55;;;;;;;24.21;43.64;100297.28;4968146;28;20047;-77
2022/05/19 09:24:55;;;;;;;6.85;3.30;;;;;;;24.25;43.84;100289.56;4951179;28;20038;-81
2022/05/19 09:27:22;;;;;;;5.10;3.50;;;;;;;24.32;44.33;100295.78;4973880;28;20042;-81
2022/05/19 09:29:52;;;;;;;5.47;3.53;;;;;;;24.35;43.97;100294.53;4961324;28;20113;-81
2022/05/19 09:32:29;;;;;;;4.13;3.55;;;;;;;24.37;43.47;100295.16;4968195;28;20043;-81
2022/05/19 09:35:15;;;;;;;6.93;3.58;;;;;;;24.37;44.05;100293.25;5005920;28;20133;-81
2022/05/19 09:37:45;;;;;;;8.35;4.20;;;;;;;24.48;43.86;100291.81;4963393;28;20043;-81
2022/05/19 09:40:12;;;;;;;9.40;3.80;;;;;;;24.46;44.04;100302.88;4949201;28;20060;-81
2022/05/19 09:43:04;;;;;;;5.97;3.42;;;;;;;24.47;44.12;100298.25;4965623;28;20105;-81
2022/05/19 09:46:04;;;;;;;9.32;3.25;;;;;;;24.50;43.73;100299.72;4976432;28;20050;-81
2022/05/19 09:48:33;;;;;;;4.68;3.10;;;;;;;24.60;45.11;100286.50;4942362;28;20097;-81
2022/05/19 09:51:03;;;;;;;5.00;3.35;;;;;;;24.64;44.21;100295.91;4939917;28;20051;-81
2022/05/19 09:53:40;;;;;;;6.38;3.47;;;;;;;24.64;45.15;100293.19;4947142;28;20442;-81
2022/05/19 09:56:13;;;;;;;11.48;3.88;;;;;;;24.67;44.05;100285.44;4964093;28;20501;-81
2022/05/19 09:58:46;;;;;;;5.32;3.42;;;;;;;24.69;43.44;100288.75;4984153;28;20704;-81
2022/05/19 10:01:37;;;;;;;4.68;3.90;;;;;;;24.67;44.10;100280.00;4971479;28;20474;-81
2022/05/19 10:04:37;;;;;;;8.90;3.80;;;;;;;24.66;43.89;100272.91;4947410;28;20426;-81
2022/05/19 10:07:22;;;;;;;6.57;4.32;;;;;;;24.75;44.00;100275.38;4926992;28;20395;-81
2022/05/19 10:09:51;;;;;;;7.00;4.20;;;;;;;24.85;43.98;100281.97;4975028;28;20038;-81
2022/05/19 10:12:28;;;;;;;4.32;3.78;;;;;;;24.81;44.25;100269.91;4976435;28;20047;-81
2022/05/19 10:15:04;;;;;;;7.45;4.03;;;;;;;24.83;43.97;100273.25;4947378;28;20134;-81
2022/05/19 10:18:00;;;;;;;7.35;4.10;;;;;;;24.83;43.49;100273.25;4961200;28;23649;-81
2022/05/19 10:20:32;;;;;;;5.80;3.92;;;;;;;25.02;43.44;100257.84;4937568;28;20050;-81
2022/05/19 10:23:45;;;;;;;9.70;3.70;;;;;;;24.89;45.44;100247.91;4970161;28;20050;-81
2022/05/19 10:26:27;;;;;;;4.90;3.40;;;;;;;24.96;45.93;100252.44;4914170;28;20413;-81
2022/05/19 10:32:42;;;;;;;6.45;3.55;;;;;;;25.02;45.76;100257.00;4872861;28;20482;-81
2022/05/19 10:35:33;;;;;;;7.95;3.78;;;;;;;25.06;44.91;100242.78;4910307;29;20055;-81
2022/05/19 10:38:14;;;;;;;4.78;4.00;;;;;;;25.17;45.71;100248.56;4936571;28;20394;-81
2022/05/19 10:40:50;;;;;;;6.70;3.85;;;;;;;25.21;44.74;100245.16;4941640;28;20050;-81
2022/05/19 10:43:38;;;;;;;8.43;3.78;;;;;;;25.22;44.08;100229.72;4989962;28;20057;-81
2022/05/19 10:46:07;;;;;;;6.78;3.90;;;;;;;25.27;44.90;100225.28;4982967;28;25106;-81
2022/05/19 10:48:49;;;;;;;6.10;3.22;;;;;;;25.31;45.36;100217.50;4976658;28;20055;-81
2022/05/19 10:51:22;;;;;;;5.63;3.63;;;;;;;25.38;45.16;100217.44;4985618;28;20137;-81
2022/05/19 10:54:03;;;;;;;4.68;3.30;;;;;;;25.37;45.53;100216.63;4978873;28;20045;-84
2022/05/19 10:56:45;;;;;;;7.95;3.40;;;;;;;25.47;45.32;100214.22;4964771;28;20491;-84
2022/05/19 10:59:54;;;;;;;10.30;3.97;;;;;;;25.46;44.37;100219.88;4977849;28;20034;-84
2022/05/19 11:02:39;;;;;;;8.85;4.20;;;;;;;25.58;44.41;100209.91;4962674;28;20054;-84
2022/05/19 11:05:27;;;;;;;4.80;3.63;;;;;;;25.63;44.71;100211.97;4986808;28;20050;-84
2022/05/19 11:08:06;;;;;;;8.85;3.97;;;;;;;25.59;45.88;100210.75;4963772;28;20046;-84
2022/05/19 11:10:44;;;;;;;7.10;4.15;;;;;;;25.64;44.82;100208.19;4975910;28;20043;-84
2022/05/19 11:13:31;;;;;;;4.50;4.03;;;;;;;25.70;44.69;100199.97;4982856;28;20413;-84
2022/05/19 11:16:25;;;;;;;7.05;3.80;;;;;;;25.68;45.17;100198.53;4994671;28;20099;-81
2022/05/19 11:18:56;;;;;;;4.85;3.80;;;;;;;25.80;45.63;100196.72;4932431;28;20046;-81
2022/05/19 11:21:44;;;;;;;7.50;4.80;;;;;;;25.80;45.83;100206.75;4939296;28;20125;-81
2022/05/19 11:24:22;;;;;;;4.38;3.95;;;;;;;25.85;45.79;100206.91;4928404;28;20051;-81
2022/05/19 11:27:09;;;;;;;5.90;3.85;;;;;;;25.89;44.87;100200.81;4959544;28;20054;-81
2022/05/19 11:29:41;;;;;;;5.18;3.95;;;;;;;26.05;45.70;100190.34;4937236;28;20379;-81
2022/05/19 11:32:35;;;;;;;4.63;3.67;;;;;;;26.03;44.77;100187.88;4976025;28;20371;-81
2022/05/19 11:35:05;;;;;;;6.78;4.18;;;;;;;26.14;44.60;100189.81;4952320;28;20062;-81
2022/05/19 11:37:46;;;;;;;6.38;3.95;;;;;;;26.11;44.95;100181.28;4971010;28;20471;-81
2022/05/19 11:40:20;;;;;;;5.97;3.78;;;;;;;26.17;44.95;100183.91;4971042;28;20052;-81
2022/05/19 11:42:55;;;;;;;6.93;3.97;;;;;;;26.22;45.38;100180.50;4962419;28;20402;-81
2022/05/19 11:45:43;;;;;;;6.80;4.05;;;;;;;26.20;45.47;100182.63;4972630;28;20508;-81
2022/05/19 11:57:20;;;;;;;7.07;3.80;;;;;;;26.46;44.73;100192.34;4944696;28;20043;-78
2022/05/19 11:59:50;;;;;;;6.47;4.40;;;;;;;26.52;44.52;100180.53;4950423;28;20069;-78
2022/05/19 12:02:20;;;;;;;4.45;3.83;;;;;;;26.56;45.08;100175.44;4946599;28;20593;-78
2022/05/19 12:04:48;;;;;;;8.90;3.92;;;;;;;26.58;44.83;100168.69;4971473;28;21783;-78
2022/05/19 12:07:34;;;;;;;4.72;4.22;;;;;;;26.57;44.63;100168.94;4980599;28;20050;-77